Time;durP1;ratioP1;P1;durP2;ratioP2;P2;SDS_P1;SDS_P2;PMS_P1;PMS_P2;Temp;Humidity;BMP_temperature;BMP_pressure;BME280_temperature;BME280_humidity;BME280_pressure;Samples;Min_cycle;Max_cycle;Signal;HPM_P1;HPM_P2
2023/04/20 00:00:13;;;;;;;6.07;2.83;;;;;;;6.65;100.00;101177.22;683346;28;1251;-64
2023/04/20 00:00:34;;;;;;;5.85;2.70;;;;;;;6.68;99.87;101172.06;684016;28;1036;-63
2023/04/20 00:00:56;;;;;;;4.97;2.75;;;;;;;6.69;100.00;101172.94;684919;28;695;-63
2023/04/20 00:01:16;;;;;;;5.60;2.80;;;;;;;6.67;100.00;101175.50;686180;28;4688;-63
2023/04/20 00:01:37;;;;;;;5.03;2.53;;;;;;;6.60;100.00;101176.22;689436;28;923;-63
2023/04/20 00:02:01;;;;;;;5.03;2.90;;;;;;;6.55;100.00;101175.25;691598;28;1178;-63
2023/04/20 00:02:22;;;;;;;5.38;3.00;;;;;;;6.53;100.00;101176.97;691519;28;1362;-64
2023/04/20 00:02:42;;;;;;;5.07;2.88;;;;;;;6.62;100.00;101174.56;691066;28;974;-64
2023/04/20 00:03:03;;;;;;;5.18;2.67;;;;;;;6.65;100.00;101178.06;691351;28;825;-63
2023/04/20 00:03:23;;;;;;;5.23;2.87;;;;;;;6.57;100.00;101173.59;691550;28;964;-63
2023/04/20 00:03:43;;;;;;;5.47;2.90;;;;;;;6.58;100.00;101172.75;690731;28;1977;-63
2023/04/20 00:04:04;;;;;;;5.07;2.80;;;;;;;6.58;100.00;101176.22;690508;28;849;-63
2023/04/20 00:04:24;;;;;;;5.28;2.78;;;;;;;6.55;100.00;101173.56;693458;28;4258;-64
2023/04/20 00:04:45;;;;;;;5.13;2.63;;;;;;;6.52;100.00;101170.91;692520;28;916;-64
2023/04/20 00:05:06;;;;;;;5.13;2.90;;;;;;;6.52;100.00;101170.91;693598;28;1273;-64
2023/04/20 00:05:27;;;;;;;4.95;2.92;;;;;;;6.62;100.00;101178.03;692269;28;1026;-64
2023/04/20 00:05:50;;;;;;;5.33;2.73;;;;;;;6.60;100.00;101168.44;693399;28;989;-63
2023/04/20 00:06:11;;;;;;;4.72;3.00;;;;;;;6.65;100.00;101169.41;692329;28;1064;-64
2023/04/20 00:06:33;;;;;;;4.82;3.00;;;;;;;6.66;100.00;101173.78;692401;28;981;-64
2023/04/20 00:06:55;;;;;;;5.32;3.05;;;;;;;6.68;100.00;101166.88;688871;28;832;-63
2023/04/20 00:07:16;;;;;;;5.40;2.92;;;;;;;6.64;100.00;101171.13;686014;28;4522;-63
2023/04/20 00:07:37;;;;;;;6.07;3.00;;;;;;;6.56;100.00;101170.13;684151;28;942;-63
2023/04/20 00:07:58;;;;;;;6.28;2.88;;;;;;;6.57;100.00;101173.59;684267;28;785;-63
2023/04/20 00:08:18;;;;;;;5.88;2.90;;;;;;;6.57;100.00;101168.38;684395;28;1146;-63
2023/04/20 00:08:39;;;;;;;5.70;2.80;;;;;;;6.55;100.00;101160.56;687044;28;951;-63
2023/04/20 00:09:00;;;;;;;4.90;2.70;;;;;;;6.54;100.00;101164.00;689247;28;951;-64
2023/04/20 00:09:20;;;;;;;5.18;2.97;;;;;;;6.55;100.00;101170.06;690040;28;1163;-63
2023/04/20 00:09:43;;;;;;;4.85;2.83;;;;;;;6.52;100.00;101172.59;690748;28;974;-63
2023/04/20 00:10:04;;;;;;;4.60;2.75;;;;;;;6.50;100.00;101169.97;689092;28;1155;-63
2023/04/20 00:10:24;;;;;;;4.95;2.90;;;;;;;6.55;100.00;101170.06;690368;28;4362;-63
2023/04/20 00:10:47;;;;;;;5.53;3.07;;;;;;;6.53;100.00;101169.16;689722;28;973;-63
2023/04/20 00:11:08;;;;;;;5.35;2.70;;;;;;;6.49;100.00;101173.41;690282;28;1363;-63
2023/04/20 00:11:28;;;;;;;5.37;2.63;;;;;;;6.47;100.00;101170.78;691456;28;845;-63
2023/04/20 00:11:49;;;;;;;5.43;2.72;;;;;;;6.47;100.00;101167.34;690940;28;967;-63
2023/04/20 00:12:09;;;;;;;5.25;2.85;;;;;;;6.53;100.00;101171.78;690197;28;1177;-63
2023/04/20 00:12:30;;;;;;;5.27;3.20;;;;;;;6.54;100.00;101163.13;690523;28;785;-63
2023/04/20 00:12:53;;;;;;;5.38;2.92;;;;;;;6.50;100.00;101172.59;690956;28;916;-64
2023/04/20 00:13:13;;;;;;;4.47;2.92;;;;;;;6.47;100.00;101168.19;689749;28;4278;-63
2023/04/20 00:13:34;;;;;;;5.22;3.00;;;;;;;6.46;100.00;101171.63;689796;28;961;-64
2023/04/20 00:13:54;;;;;;;4.70;2.60;;;;;;;6.42;100.00;101167.22;690729;28;1193;-64
2023/04/20 00:14:15;;;;;;;5.03;2.70;;;;;;;6.40;100.00;101161.13;688255;28;1220;-63
2023/04/20 00:14:36;;;;;;;5.83;2.90;;;;;;;6.50;100.00;101164.78;687970;28;868;-63
2023/04/20 00:14:56;;;;;;;5.10;2.80;;;;;;;6.50;100.00;101159.59;689426;28;776;-63
2023/04/20 00:15:17;;;;;;;6.35;3.00;;;;;;;6.48;100.00;101162.16;688634;28;1578;-63
2023/04/20 00:15:37;;;;;;;6.20;3.03;;;;;;;6.54;100.00;101163.13;688254;28;919;-64
2023/04/20 00:15:58;;;;;;;5.20;3.10;;;;;;;6.53;100.00;101158.78;688783;28;1336;-64
2023/04/20 00:16:21;;;;;;;5.27;3.20;;;;;;;6.50;100.00;101159.59;689470;28;4541;-63
2023/04/20 00:16:41;;;;;;;5.10;2.85;;;;;;;6.47;100.00;101157.81;690450;28;903;-63
2023/04/20 00:17:01;;;;;;;5.85;2.90;;;;;;;6.50;100.00;101156.13;691177;28;913;-64
2023/04/20 00:17:22;;;;;;;6.17;2.97;;;;;;;6.53;100.00;101158.78;691335;28;1146;-64
2023/04/20 00:17:43;;;;;;;5.30;2.95;;;;;;;6.61;100.00;101157.22;692429;28;1331;-63
2023/04/20 00:18:03;;;;;;;4.57;2.83;;;;;;;6.59;100.00;101161.47;693787;28;1111;-63
2023/04/20 00:18:24;;;;;;;5.77;2.57;;;;;;;6.78;100.00;101150.63;693553;28;1240;-64
2023/04/20 00:18:45;;;;;;;6.97;3.07;;;;;;;6.73;100.00;101153.94;690402;28;974;-63
2023/04/20 00:19:06;;;;;;;4.95;2.85;;;;;;;6.67;100.00;101157.31;691199;28;1309;-64
2023/04/20 00:19:31;;;;;;;4.50;2.60;;;;;;;6.64;100.00;101154.66;690717;28;4327;-64
2023/04/20 00:19:52;;;;;;;4.78;2.70;;;;;;;6.61;100.00;101150.28;691515;28;905;-63
2023/04/20 00:20:14;;;;;;;5.33;3.10;;;;;;;6.59;100.00;101156.28;691602;28;957;-63
2023/04/20 00:20:34;;;;;;;5.45;2.78;;;;;;;6.56;100.00;101148.44;690862;28;974;-63
2023/04/20 00:20:56;;;;;;;5.38;2.78;;;;;;;6.53;100.00;101151.84;691268;28;1424;-63
2023/04/20 00:21:16;;;;;;;7.45;3.20;;;;;;;6.52;100.00;101149.22;694080;28;1203;-63
2023/04/20 00:21:37;;;;;;;7.18;3.13;;;;;;;6.54;100.00;101148.41;692755;28;954;-63
2023/04/20 00:21:57;;;;;;;6.27;2.83;;;;;;;6.55;100.00;101147.59;692305;28;916;-63
2023/04/20 00:22:18;;;;;;;5.13;2.80;;;;;;;6.52;100.00;101149.22;691710;28;4513;-63
2023/04/20 00:22:38;;;;;;;6.43;2.80;;;;;;;6.48;100.00;101145.72;690501;28;891;-63
2023/04/20 00:22:58;;;;;;;5.97;2.70;;;;;;;6.47;100.00;101146.56;690623;28;1154;-63
2023/04/20 00:23:19;;;;;;;4.70;2.70;;;;;;;6.45;100.00;101143.94;690518;28;861;-63
2023/04/20 00:23:40;;;;;;;4.18;2.70;;;;;;;6.44;100.00;101144.75;690779;28;970;-63
2023/04/20 00:24:01;;;;;;;4.75;2.83;;;;;;;6.44;100.00;101146.50;686838;28;1405;-64
2023/04/20 00:24:21;;;;;;;5.68;2.60;;;;;;;6.47;100.00;101137.03;688447;28;1018;-65
2023/04/20 00:24:42;;;;;;;5.82;2.85;;;;;;;6.60;100.00;101145.06;687574;28;974;-65
2023/04/20 00:25:03;;;;;;;5.38;3.13;;;;;;;6.59;100.00;101144.19;686819;28;823;-64
2023/04/20 00:25:24;;;;;;;6.20;3.13;;;;;;;6.65;100.00;101138.25;689409;28;4541;-64
2023/04/20 00:25:45;;;;;;;5.70;3.10;;;;;;;6.68;100.00;101140.88;690733;28;986;-64
2023/04/20 00:26:05;;;;;;;4.80;2.90;;;;;;;6.78;100.00;101134.13;692888;28;974;-64
2023/04/20 00:26:26;;;;;;;4.88;2.75;;;;;;;6.81;100.00;101140.28;692684;28;3632;-64
2023/04/20 00:26:50;;;;;;;5.25;2.63;;;;;;;6.76;100.00;101136.72;693492;28;1296;-63
2023/04/20 00:27:10;;;;;;;5.63;2.97;;;;;;;6.69;100.00;101127.06;692689;28;1342;-64
2023/04/20 00:27:31;;;;;;;5.73;2.80;;;;;;;6.68;100.00;101130.50;690885;28;1594;-64
2023/04/20 00:27:51;;;;;;;5.05;2.70;;;;;;;6.66;100.00;101121.81;691969;28;885;-64
2023/04/20 00:28:12;;;;;;;5.70;2.80;;;;;;;6.63;100.00;101134.72;688124;28;4960;-64
2023/04/20 00:28:34;;;;;;;6.13;2.90;;;;;;;6.67;100.00;101131.34;687835;28;1488;-64
2023/04/20 00:28:54;;;;;;;5.00;2.92;;;;;;;6.77;100.00;101134.97;688451;28;1449;-64
2023/04/20 00:29:15;;;;;;;5.13;3.13;;;;;;;6.75;100.00;101121.97;688499;28;1387;-63
2023/04/20 00:29:35;;;;;;;5.22;2.90;;;;;;;6.74;100.00;101125.44;688209;28;1813;-63
2023/04/20 00:29:58;;;;;;;4.97;2.92;;;;;;;6.79;100.00;101126.38;688556;28;1450;-64
2023/04/20 00:30:18;;;;;;;6.30;4.05;;;;;;;6.84;100.00;101125.56;689009;28;1649;-63
2023/04/20 00:30:38;;;;;;;7.30;3.87;;;;;;;6.81;100.00;101114.28;688220;28;2076;-64
2023/04/20 00:30:59;;;;;;;5.82;3.40;;;;;;;6.87;100.00;101118.72;689039;28;873;-64
2023/04/20 00:31:20;;;;;;;5.40;3.20;;;;;;;6.87;100.00;101121.31;689367;28;4448;-63
2023/04/20 00:31:41;;;;;;;5.10;3.00;;;;;;;6.86;100.00;101126.50;685760;28;1496;-64
2023/04/20 00:32:01;;;;;;;4.65;2.95;;;;;;;6.88;100.00;101128.28;685411;28;1335;-63
2023/04/20 00:32:21;;;;;;;4.73;3.10;;;;;;;6.83;100.00;101122.13;690392;28;1241;-64
2023/04/20 00:32:42;;;;;;;5.55;3.35;;;;;;;6.89;100.00;101111.81;688481;28;1637;-63
2023/04/20 00:33:02;;;;;;;5.57;2.93;;;;;;;6.91;100.00;101123.13;686970;28;932;-63
2023/04/20 00:33:23;;;;;;;5.78;3.15;;;;;;;6.92;100.00;101117.09;688136;28;1139;-63
2023/04/20 00:33:43;;;;;;;5.63;2.83;;;;;;;6.86;100.00;101114.38;689375;28;1633;-62
2023/04/20 00:34:04;;;;;;;6.65;3.00;;;;;;;6.81;100.00;101114.28;689957;28;1402;-64
2023/04/20 00:34:24;;;;;;;5.73;2.97;;;;;;;6.87;100.00;101130.81;684843;28;4350;-64
2023/04/20 00:34:44;;;;;;;5.47;3.15;;;;;;;6.85;100.00;101114.34;685070;28;1675;-64
2023/04/20 00:35:05;;;;;;;6.00;3.30;;;;;;;6.91;100.00;101115.31;685841;28;1131;-64
2023/04/20 00:35:26;;;;;;;4.80;3.00;;;;;;;6.99;100.00;101110.25;685473;28;1259;-63
2023/04/20 00:35:46;;;;;;;4.83;2.90;;;;;;;6.94;100.00;101119.72;685447;28;904;-63
2023/04/20 00:36:07;;;;;;;6.23;2.90;;;;;;;6.90;100.00;101116.16;687545;28;883;-63
2023/04/20 00:36:29;;;;;;;6.22;2.90;;;;;;;6.86;100.00;101116.09;692106;28;1175;-63
2023/04/20 00:36:49;;;;;;;5.07;3.00;;;;;;;6.87;100.00;101112.63;690230;28;1096;-65
2023/04/20 00:37:11;;;;;;;5.70;3.22;;;;;;;7.05;100.00;101105.16;690046;28;4674;-65
2023/04/20 00:37:31;;;;;;;5.33;3.17;;;;;;;7.07;100.00;101106.06;687200;28;916;-63
2023/04/20 00:37:52;;;;;;;6.05;3.17;;;;;;;6.97;100.00;101111.97;687846;28;1594;-64
2023/04/20 00:38:12;;;;;;;5.53;3.00;;;;;;;6.94;100.00;101111.91;688092;28;1387;-63
2023/04/20 00:38:33;;;;;;;4.88;3.10;;;;;;;7.00;100.00;101109.41;686708;28;1276;-64
2023/04/20 00:38:53;;;;;;;5.20;3.20;;;;;;;7.01;100.00;101108.56;688579;28;862;-64
2023/04/20 00:39:15;;;;;;;5.63;3.05;;;;;;;7.00;100.00;101117.19;688380;28;1032;-64
2023/04/20 00:39:35;;;;;;;6.20;3.10;;;;;;;6.94;100.00;101110.19;687566;28;1102;-64
2023/04/20 00:39:57;;;;;;;5.20;3.00;;;;;;;6.89;100.00;101108.34;688728;28;1486;-63
2023/04/20 00:40:18;;;;;;;5.20;2.70;;;;;;;6.89;100.00;101106.63;689908;28;4948;-64
2023/04/20 00:40:41;;;;;;;5.28;3.20;;;;;;;6.88;100.00;101110.09;689466;28;935;-63
2023/04/20 00:41:01;;;;;;;5.50;3.40;;;;;;;6.88;100.00;101107.50;688118;28;849;-64
2023/04/20 00:41:24;;;;;;;5.80;3.08;;;;;;;6.92;100.00;101105.78;687606;28;1474;-63
2023/04/20 00:41:46;;;;;;;5.53;3.08;;;;;;;6.94;100.00;101111.91;687839;28;1116;-63
2023/04/20 00:42:07;;;;;;;5.60;3.00;;;;;;;6.90;100.00;101105.78;687036;28;1556;-63
2023/04/20 00:42:28;;;;;;;5.85;3.15;;;;;;;6.86;100.00;101109.16;686445;28;996;-63
2023/04/20 00:42:48;;;;;;;5.43;3.13;;;;;;;6.86;100.00;101116.97;687091;28;980;-65
2023/04/20 00:43:11;;;;;;;5.72;3.20;;;;;;;6.92;100.00;101106.69;686745;28;4424;-64
2023/04/20 00:43:31;;;;;;;5.60;2.90;;;;;;;6.96;100.00;101098.09;685488;28;1425;-63
2023/04/20 00:43:52;;;;;;;5.82;3.40;;;;;;;6.95;100.00;101109.34;683366;28;1902;-64
2023/04/20 00:44:13;;;;;;;6.38;3.25;;;;;;;7.00;100.00;101101.59;685641;28;1111;-64
2023/04/20 00:44:34;;;;;;;6.00;3.55;;;;;;;6.92;100.00;101101.50;688080;28;1116;-64
2023/04/20 00:44:54;;;;;;;6.10;3.30;;;;;;;6.89;100.00;101103.16;686774;28;1462;-64
2023/04/20 00:45:15;;;;;;;6.25;3.17;;;;;;;6.91;100.00;101110.13;684902;28;1239;-65
2023/04/20 00:45:36;;;;;;;6.97;3.07;;;;;;;6.97;100.00;101107.63;684633;28;931;-63
2023/04/20 00:45:57;;;;;;;6.18;3.22;;;;;;;6.88;100.00;101109.19;685561;28;1274;-64
2023/04/20 00:46:18;;;;;;;6.33;3.33;;;;;;;6.82;100.00;101105.63;685393;28;4341;-63
2023/04/20 00:46:39;;;;;;;5.00;3.10;;;;;;;6.74;100.00;101104.66;685249;28;1339;-64
2023/04/20 00:47:00;;;;;;;6.72;3.28;;;;;;;6.73;100.00;101117.56;686970;28;794;-65
2023/04/20 00:47:21;;;;;;;6.20;3.10;;;;;;;6.75;100.00;101105.50;688705;28;773;-63
2023/04/20 00:47:41;;;;;;;5.43;3.13;;;;;;;6.86;100.00;101098.78;687906;28;1055;-64
2023/04/20 00:48:02;;;;;;;5.90;3.40;;;;;;;6.94;100.00;101101.50;688692;28;1484;-65
2023/04/20 00:48:23;;;;;;;5.97;3.20;;;;;;;7.01;100.00;101111.16;691457;28;991;-64
2023/04/20 00:48:43;;;;;;;5.45;3.22;;;;;;;7.01;100.00;101100.75;693160;28;1092;-65
2023/04/20 00:49:05;;;;;;;5.80;3.17;;;;;;;7.11;100.00;101097.44;689731;28;1265;-65
2023/04/20 00:49:28;;;;;;;5.15;3.17;;;;;;;7.15;100.00;101101.84;687025;28;4330;-64
2023/04/20 00:49:50;;;;;;;6.28;3.25;;;;;;;7.11;100.00;101099.19;685347;28;2273;-64
2023/04/20 00:50:11;;;;;;;5.78;3.20;;;;;;;7.04;100.00;101099.94;687237;28;952;-64
2023/04/20 00:50:33;;;;;;;5.78;3.15;;;;;;;6.99;100.00;101105.03;686967;28;1570;-64
2023/04/20 00:50:54;;;;;;;6.28;3.10;;;;;;;6.95;100.00;101101.53;686493;28;1110;-64
2023/04/20 00:51:15;;;;;;;6.90;3.50;;;;;;;6.95;100.00;101105.84;686722;28;1419;-64
2023/04/20 00:51:35;;;;;;;5.70;3.13;;;;;;;6.99;100.00;101105.03;687132;28;1018;-63
2023/04/20 00:51:59;;;;;;;6.40;3.33;;;;;;;6.94;100.00;101096.31;686390;28;897;-64
2023/04/20 00:52:20;;;;;;;5.47;3.22;;;;;;;6.95;100.00;101098.03;680278;28;4362;-65
2023/04/20 00:52:41;;;;;;;5.90;3.58;;;;;;;7.05;100.00;101104.28;682638;28;976;-64
2023/04/20 00:53:02;;;;;;;5.88;3.30;;;;;;;6.98;100.00;101092.91;684509;28;1351;-64
2023/04/20 00:53:22;;;;;;;5.65;3.35;;;;;;;6.92;100.00;101092.81;684686;28;818;-64
2023/04/20 00:53:43;;;;;;;5.33;3.30;;;;;;;7.05;100.00;101097.38;685340;28;1247;-65
2023/04/20 00:54:04;;;;;;;7.13;3.30;;;;;;;7.05;100.00;101096.47;686744;28;892;-64
2023/04/20 00:54:29;;;;;;;5.68;3.30;;;;;;;6.92;100.00;101103.19;690536;28;1170;-64
2023/04/20 00:54:49;;;;;;;5.63;3.20;;;;;;;6.91;100.00;101098.84;690665;28;1041;-64
2023/04/20 00:55:11;;;;;;;5.28;3.10;;;;;;;6.85;100.00;101096.16;687906;28;4316;-62
2023/04/20 00:55:32;;;;;;;4.78;3.08;;;;;;;6.82;100.00;101095.22;684221;28;960;-65
2023/04/20 00:55:53;;;;;;;4.38;3.10;;;;;;;6.94;100.00;101096.31;683935;28;1218;-68
2023/04/20 00:56:14;;;;;;;6.40;3.40;;;;;;;7.07;100.00;101093.06;682387;28;1359;-65
2023/04/20 00:56:34;;;;;;;6.00;3.33;;;;;;;7.04;100.00;101093.00;684581;28;963;-66
2023/04/20 00:56:56;;;;;;;5.75;3.38;;;;;;;7.13;100.00;101098.38;682238;28;1364;-66
2023/04/20 00:57:22;;;;;;;5.57;3.38;;;;;;;7.20;100.00;101099.34;686452;28;1432;-66
2023/04/20 00:57:43;;;;;;;5.88;3.50;;;;;;;7.16;100.00;101098.41;687987;28;1155;-64
2023/04/20 00:58:04;;;;;;;5.82;3.60;;;;;;;7.07;100.00;101089.59;687885;28;897;-64
2023/04/20 00:58:27;;;;;;;5.72;3.53;;;;;;;7.09;100.00;101098.28;687536;28;4366;-64
2023/04/20 00:58:47;;;;;;;6.50;3.47;;;;;;;7.02;100.00;101097.31;689758;28;1058;-64
2023/04/20 00:59:09;;;;;;;6.07;3.43;;;;;;;6.95;100.00;101098.03;687181;28;1023;-64
2023/04/20 00:59:29;;;;;;;6.85;3.80;;;;;;;6.91;100.00;101093.63;688513;28;1302;-64
2023/04/20 00:59:52;;;;;;;5.40;3.67;;;;;;;6.92;100.00;101092.81;685435;28;1007;-64
2023/04/20 01:00:15;;;;;;;5.40;3.20;;;;;;;6.94;100.00;101085.91;685800;28;1311;-64
2023/04/20 01:00:37;;;;;;;5.68;3.40;;;;;;;6.89;100.00;101092.75;685073;28;885;-63
2023/04/20 01:00:57;;;;;;;6.95;3.40;;;;;;;6.91;100.00;101096.25;686539;28;1291;-65
2023/04/20 01:01:18;;;;;;;5.55;3.20;;;;;;;6.84;100.00;101097.88;685779;28;4448;-62
2023/04/20 01:01:40;;;;;;;6.82;3.38;;;;;;;6.86;100.00;101097.91;685494;28;1017;-65
2023/04/20 01:02:01;;;;;;;6.47;2.92;;;;;;;6.86;100.00;101088.38;683472;28;1135;-63
2023/04/20 01:02:21;;;;;;;6.20;3.10;;;;;;;6.92;100.00;101082.41;685649;28;1310;-63
2023/04/20 01:02:41;;;;;;;5.13;3.25;;;;;;;6.89;100.00;101091.03;685266;28;1284;-63
2023/04/20 01:03:03;;;;;;;5.23;3.30;;;;;;;6.80;100.00;101088.28;685891;28;780;-63
2023/04/20 01:03:23;;;;;;;5.93;3.22;;;;;;;6.76;100.00;101094.28;683137;28;866;-64
2023/04/20 01:03:44;;;;;;;6.40;3.53;;;;;;;6.82;100.00;101091.75;683258;28;2000;-64
2023/04/20 01:04:06;;;;;;;5.95;3.42;;;;;;;6.87;100.00;101089.22;685243;28;810;-62
2023/04/20 01:04:27;;;;;;;5.40;3.13;;;;;;;6.90;100.00;101090.19;687579;28;4386;-66
2023/04/20 01:04:48;;;;;;;6.07;3.20;;;;;;;6.99;100.00;101089.44;685417;28;998;-67
2023/04/20 01:05:09;;;;;;;5.33;3.30;;;;;;;6.90;100.00;101089.31;688317;28;878;-65
2023/04/20 01:05:29;;;;;;;5.80;3.58;;;;;;;6.89;100.00;101077.16;685075;28;1206;-63
2023/04/20 01:05:52;;;;;;;7.72;3.58;;;;;;;6.94;100.00;101080.72;685964;28;1287;-64
2023/04/20 01:06:15;;;;;;;6.70;3.30;;;;;;;6.94;100.00;101085.91;686608;28;782;-66
2023/04/20 01:06:36;;;;;;;6.47;3.15;;;;;;;6.98;100.00;101075.59;684452;28;967;-66
2023/04/20 01:06:56;;;;;;;5.57;3.13;;;;;;;7.06;100.00;101080.94;685087;28;1292;-65
2023/04/20 01:07:16;;;;;;;6.15;3.20;;;;;;;7.09;100.00;101082.66;688673;28;4425;-63
2023/04/20 01:07:37;;;;;;;6.20;3.50;;;;;;;6.92;100.00;101075.50;684757;28;1363;-63
2023/04/20 01:07:57;;;;;;;5.87;3.50;;;;;;;6.95;100.00;101078.16;684705;28;901;-63
2023/04/20 01:08:18;;;;;;;7.33;3.30;;;;;;;6.88;100.00;101076.28;686904;28;1230;-64
2023/04/20 01:08:49;;;;;;;5.50;3.20;;;;;;;6.96;100.00;101076.41;686317;28;967;-64
2023/04/20 01:09:10;;;;;;;6.38;3.42;;;;;;;6.93;100.00;101086.75;691030;28;746;-65
2023/04/20 01:09:32;;;;;;;5.90;3.00;;;;;;;6.85;100.00;101084.00;691206;28;927;-63
2023/04/20 01:09:52;;;;;;;6.20;3.25;;;;;;;6.90;100.00;101086.72;691386;28;691;-64
2023/04/20 01:10:13;;;;;;;6.47;3.67;;;;;;;6.94;100.00;101083.31;690601;28;4728;-64
2023/04/20 01:10:33;;;;;;;7.15;3.53;;;;;;;6.85;100.00;101085.75;688561;28;941;-63
2023/04/20 01:10:54;;;;;;;7.23;3.40;;;;;;;6.82;100.00;101081.38;689583;28;1362;-64
2023/04/20 01:11:14;;;;;;;5.80;3.25;;;;;;;6.84;100.00;101082.28;685664;28;1136;-64
2023/04/20 01:11:35;;;;;;;6.30;3.40;;;;;;;6.89;100.00;101087.56;685176;28;959;-64
2023/04/20 01:11:55;;;;;;;5.88;3.17;;;;;;;6.86;100.00;101080.56;685845;28;956;-64
2023/04/20 01:12:16;;;;;;;5.28;3.10;;;;;;;6.87;100.00;101084.03;686030;28;1044;-64
2023/04/20 01:12:37;;;;;;;5.65;3.38;;;;;;;6.93;100.00;101089.34;685066;28;1145;-64
2023/04/20 01:12:58;;;;;;;6.22;3.50;;;;;;;6.90;100.00;101078.91;686241;28;1090;-64
2023/04/20 01:13:18;;;;;;;5.87;3.27;;;;;;;6.86;100.00;101084.91;689314;28;4440;-63
2023/04/20 01:13:38;;;;;;;5.20;3.33;;;;;;;6.80;100.00;101083.94;689457;28;1444;-64
2023/04/20 01:14:00;;;;;;;6.17;3.63;;;;;;;6.75;100.00;101080.38;688127;28;1221;-64
2023/04/20 01:14:20;;;;;;;5.43;3.25;;;;;;;6.76;100.00;101076.09;687461;28;1393;-64
2023/04/20 01:14:41;;;;;;;4.90;3.00;;;;;;;6.67;100.00;101081.97;685276;28;1087;-64
2023/04/20 01:15:04;;;;;;;6.00;3.42;;;;;;;6.75;100.00;101082.97;685831;28;1658;-64
2023/04/20 01:15:25;;;;;;;6.18;3.30;;;;;;;6.79;100.00;101082.19;686454;28;944;-64
2023/04/20 01:15:45;;;;;;;6.28;3.42;;;;;;;6.77;100.00;101083.91;687955;28;1207;-64
2023/04/20 01:16:08;;;;;;;6.13;3.47;;;;;;;6.78;100.00;101079.56;689057;28;1112;-64
2023/04/20 01:16:30;;;;;;;5.50;3.20;;;;;;;6.78;100.00;101085.66;691563;28;5193;-64
2023/04/20 01:16:51;;;;;;;5.45;3.15;;;;;;;6.70;100.00;101075.97;692686;28;1537;-63
2023/04/20 01:17:13;;;;;;;6.23;3.20;;;;;;;6.62;100.00;101076.69;691939;28;1022;-64
2023/04/20 01:17:39;;;;;;;6.30;3.53;;;;;;;6.68;100.00;101067.28;688968;28;2534;-64
2023/04/20 01:17:59;;;;;;;7.07;3.35;;;;;;;6.73;100.00;101076.91;686463;28;1063;-64
2023/04/20 01:18:20;;;;;;;6.75;3.58;;;;;;;6.75;100.00;101080.38;686168;28;802;-64
2023/04/20 01:18:48;;;;;;;6.97;3.57;;;;;;;6.72;100.00;101082.94;686780;28;888;-64
2023/04/20 01:19:08;;;;;;;5.32;3.20;;;;;;;6.71;100.00;101081.19;690779;28;4551;-64
2023/04/20 01:19:29;;;;;;;5.87;3.47;;;;;;;6.64;100.00;101080.19;692629;28;1183;-64
2023/04/20 01:19:50;;;;;;;5.95;3.38;;;;;;;6.70;100.00;101075.97;690794;28;1009;-64
2023/04/20 01:20:11;;;;;;;6.07;3.23;;;;;;;6.73;100.00;101071.69;691243;28;787;-64
2023/04/20 01:20:31;;;;;;;6.18;3.53;;;;;;;6.76;100.00;101074.34;691160;28;1224;-64
2023/04/20 01:20:53;;;;;;;6.15;3.80;;;;;;;6.76;100.00;101070.88;688793;28;816;-63
2023/04/20 01:21:17;;;;;;;6.97;3.77;;;;;;;6.68;100.00;101073.34;690607;28;1207;-64
2023/04/20 01:21:37;;;;;;;5.57;3.13;;;;;;;6.62;100.00;101071.50;690672;28;923;-63
2023/04/20 01:21:57;;;;;;;5.43;3.43;;;;;;;6.57;100.00;101074.88;688620;28;1177;-64
2023/04/20 01:22:19;;;;;;;5.63;3.28;;;;;;;6.52;100.00;101067.00;690533;28;4541;-64
2023/04/20 01:22:47;;;;;;;5.38;3.22;;;;;;;6.53;100.00;101073.06;689547;28;3603;-64
2023/04/20 01:23:08;;;;;;;5.60;3.28;;;;;;;6.51;100.00;101069.53;688435;28;1000;-63
2023/04/20 01:23:33;;;;;;;6.07;3.38;;;;;;;6.47;100.00;101068.63;689849;28;806;-64
2023/04/20 01:23:57;;;;;;;5.18;3.25;;;;;;;6.47;100.00;101073.81;690761;28;1918;-64
2023/04/20 01:24:18;;;;;;;6.40;3.28;;;;;;;6.51;100.00;101062.66;690834;28;1278;-64
2023/04/20 01:24:38;;;;;;;5.85;3.00;;;;;;;6.51;100.00;101065.25;689171;28;1580;-64
2023/04/20 01:24:59;;;;;;;5.07;3.00;;;;;;;6.48;100.00;101071.25;690527;28;1121;-64
2023/04/20 01:25:20;;;;;;;5.78;3.17;;;;;;;6.45;100.00;101071.22;687157;28;4366;-64
2023/04/20 01:25:41;;;;;;;7.15;3.35;;;;;;;6.42;100.00;101070.25;683635;28;1568;-63
2023/04/20 01:26:09;;;;;;;6.63;3.50;;;;;;;6.40;100.00;101065.03;682459;28;1024;-63
2023/04/20 01:26:29;;;;;;;7.40;3.60;;;;;;;6.39;100.00;101068.47;683545;28;1472;-64
2023/04/20 01:26:50;;;;;;;8.93;3.80;;;;;;;6.39;100.00;101071.06;685269;28;1141;-64
2023/04/20 01:27:12;;;;;;;7.25;3.72;;;;;;;6.40;100.00;101067.63;686638;28;920;-64
2023/04/20 01:27:33;;;;;;;5.57;3.22;;;;;;;6.42;100.00;101065.94;686824;28;1456;-64
2023/04/20 01:27:55;;;;;;;7.30;3.50;;;;;;;6.49;100.00;101061.72;688686;28;1383;-63
2023/04/20 01:28:15;;;;;;;7.78;3.80;;;;;;;6.59;100.00;101057.56;690827;28;4302;-65
2023/04/20 01:28:36;;;;;;;6.50;3.80;;;;;;;6.61;100.00;101063.69;693297;28;1516;-64
2023/04/20 01:28:57;;;;;;;5.83;3.70;;;;;;;6.64;100.00;101066.34;693811;28;789;-64
2023/04/20 01:29:18;;;;;;;5.65;3.60;;;;;;;6.56;100.00;101062.72;692122;28;1484;-64
2023/04/20 01:29:38;;;;;;;6.13;3.43;;;;;;;6.47;100.00;101066.91;690121;28;1745;-64
2023/04/20 01:29:59;;;;;;;6.20;3.42;;;;;;;6.43;100.00;101066.81;693110;28;1075;-64
2023/04/20 01:30:19;;;;;;;6.60;3.40;;;;;;;6.41;100.00;101068.50;689920;28;1113;-64
2023/04/20 01:30:40;;;;;;;7.43;3.70;;;;;;;6.38;100.00;101069.31;687507;28;1433;-64
2023/04/20 01:31:02;;;;;;;8.18;3.60;;;;;;;6.42;100.00;101060.75;688511;28;912;-64
2023/04/20 01:31:25;;;;;;;6.70;3.58;;;;;;;6.44;100.00;101068.59;683950;28;4312;-64
2023/04/20 01:31:46;;;;;;;5.53;3.25;;;;;;;6.42;100.00;101071.13;686328;28;1471;-64
2023/04/20 01:32:06;;;;;;;5.53;3.43;;;;;;;6.40;100.00;101067.63;687772;28;764;-64
2023/04/20 01:32:27;;;;;;;5.47;3.43;;;;;;;6.40;100.00;101069.38;688366;28;1397;-64
2023/04/20 01:32:47;;;;;;;7.10;3.28;;;;;;;6.37;100.00;101059.78;685456;28;1536;-64
2023/04/20 01:33:08;;;;;;;7.22;3.50;;;;;;;6.43;100.00;101067.69;684651;28;1358;-64
2023/04/20 01:33:29;;;;;;;6.73;3.60;;;;;;;6.45;100.00;101060.81;685442;28;790;-64
2023/04/20 01:33:50;;;;;;;6.82;3.78;;;;;;;6.46;100.00;101066.88;682009;28;1611;-64
2023/04/20 01:34:16;;;;;;;6.35;3.55;;;;;;;6.44;100.00;101064.25;679586;28;4616;-64
2023/04/20 01:34:37;;;;;;;5.90;3.67;;;;;;;6.41;100.00;101058.13;683882;28;2154;-64
2023/04/20 01:34:57;;;;;;;6.10;3.53;;;;;;;6.39;100.00;101060.69;686546;28;916;-64
2023/04/20 01:35:17;;;;;;;6.90;3.23;;;;;;;6.37;100.00;101061.50;688327;28;1081;-64
2023/04/20 01:35:41;;;;;;;5.75;3.42;;;;;;;6.35;100.00;101063.22;687122;28;1729;-64
2023/04/20 01:36:03;;;;;;;5.97;3.47;;;;;;;6.35;100.00;101061.47;688573;28;770;-64
2023/04/20 01:36:24;;;;;;;5.93;3.42;;;;;;;6.38;100.00;101063.25;685795;28;1705;-64
2023/04/20 01:36:44;;;;;;;5.70;3.47;;;;;;;6.34;100.00;101057.16;682445;28;1756;-64
2023/04/20 01:37:08;;;;;;;6.20;3.28;;;;;;;6.30;100.00;101055.34;683393;28;857;-64
2023/04/20 01:37:28;;;;;;;6.50;3.55;;;;;;;6.28;100.00;101060.47;686631;28;4908;-64
2023/04/20 01:37:49;;;;;;;6.80;3.50;;;;;;;6.27;100.00;101057.84;686723;28;1591;-64
2023/04/20 01:38:09;;;;;;;6.83;3.37;;;;;;;6.28;100.00;101059.63;687708;28;788;-64
2023/04/20 01:38:31;;;;;;;5.28;3.20;;;;;;;6.28;100.00;101063.06;688422;28;1117;-64
2023/04/20 01:38:54;;;;;;;6.25;3.30;;;;;;;6.30;100.00;101070.91;687561;28;1299;-64
2023/04/20 01:39:16;;;;;;;5.83;3.40;;;;;;;6.28;100.00;101060.47;687786;28;4973;-65
2023/04/20 01:39:38;;;;;;;4.82;2.90;;;;;;;6.29;100.00;101058.78;689196;28;1448;-64
2023/04/20 01:39:58;;;;;;;5.28;3.22;;;;;;;6.30;100.00;101066.59;689808;28;1027;-64
2023/04/20 01:40:19;;;;;;;5.50;3.40;;;;;;;6.30;100.00;101068.31;689816;28;4292;-65
2023/04/20 01:40:39;;;;;;;5.83;3.40;;;;;;;6.27;100.00;101056.16;689540;28;1727;-64
2023/04/20 01:41:01;;;;;;;6.57;3.53;;;;;;;6.28;100.00;101059.63;692353;28;1335;-65
2023/04/20 01:41:21;;;;;;;6.32;3.50;;;;;;;6.32;100.00;101060.56;689611;28;750;-65